createdAt,value
2019-05-06T00:02:13.789Z,87.50
2019-05-06T00:05:17.973Z,87.98
2019-05-06T00:08:23.679Z,87.88
2019-05-06T00:11:27.498Z,87.70
2019-05-06T00:14:31.371Z,87.74
2019-05-06T00:17:35.267Z,87.14
2019-05-06T00:20:39.179Z,87.70
2019-05-06T00:23:49.054Z,86.64
2019-05-06T00:27:04.724Z,86.67
2019-05-06T00:30:09.135Z,87.20
2019-05-06T00:33:13.576Z,87.20
2019-05-06T00:36:17.562Z,87.88
2019-05-06T00:39:46.657Z,87.79
2019-05-06T00:43:00.391Z,87.90
2019-05-06T00:46:04.833Z,87.37
2019-05-06T00:49:08.795Z,85.87
2019-05-06T00:52:13.654Z,87.05
2019-05-06T00:55:17.648Z,86.06
2019-05-06T00:58:23.634Z,85.83
2019-05-06T01:01:29.796Z,86.93
2019-05-06T01:04:33.902Z,88.35
2019-05-06T01:07:37.931Z,88.72
2019-05-06T01:10:41.872Z,89.62
2019-05-06T01:13:54.549Z,89.69
2019-05-06T01:16:58.454Z,91.14
2019-05-06T01:20:04.280Z,91.15
2019-05-06T01:23:07.938Z,90.87
2019-05-06T01:26:14.937Z,90.89
2019-05-06T01:29:18.456Z,91.03
2019-05-06T01:32:23.652Z,90.31
2019-05-06T01:35:27.772Z,90.06
2019-05-06T01:38:36.288Z,88.91
2019-05-06T01:41:46.318Z,89.22
2019-05-06T01:44:50.126Z,88.77
2019-05-06T01:47:54.415Z,88.94
2019-05-06T01:50:58.333Z,89.46
2019-05-06T01:54:03.775Z,89.59
2019-05-06T01:57:07.933Z,89.91
2019-05-06T02:00:14.093Z,89.93
2019-05-06T02:03:18.077Z,91.50
2019-05-06T02:06:22.010Z,90.60
2019-05-06T02:09:26.205Z,90.65
2019-05-06T02:12:30.061Z,91.38
2019-05-06T02:15:34.619Z,92.36
2019-05-06T02:18:38.650Z,92.19
2019-05-06T02:22:00.467Z,91.65
2019-05-06T02:25:14.443Z,91.76
2019-05-06T02:28:18.263Z,92.11
2019-05-06T02:31:39.706Z,92.23
2019-05-06T02:35:01.442Z,93.29
2019-05-06T02:38:07.019Z,93.35
2019-05-06T02:41:13.376Z,93.91
2019-05-06T02:44:16.539Z,93.83
2019-05-06T02:47:34.942Z,93.42
2019-05-06T02:51:03.406Z,92.15
2019-05-06T02:54:06.307Z,92.46
2019-05-06T02:57:12.977Z,93.17
2019-05-06T03:00:18.161Z,92.85
2019-05-06T03:03:23.290Z,92.86
2019-05-06T03:06:27.703Z,93.28
2019-05-06T03:09:34.028Z,94.08
2019-05-06T03:12:37.186Z,93.68
2019-05-06T03:15:43.338Z,94.15
2019-05-06T03:18:46.730Z,94.54
2019-05-06T03:22:15.709Z,95.06
2019-05-06T03:25:24.127Z,94.67
2019-05-06T03:28:28.007Z,93.92
2019-05-06T03:31:36.360Z,92.57
2019-05-06T03:34:57.968Z,93.73
2019-05-06T03:37:44.086Z,94.59
2019-05-06T03:40:48.055Z,95.32
2019-05-06T03:43:54.366Z,95.76
2019-05-06T03:47:28.855Z,95.44
2019-05-06T03:50:33.669Z,95.26
2019-05-06T03:53:37.836Z,95.71
2019-05-06T03:56:43.294Z,95.42
2019-05-06T03:59:48.992Z,95.55
2019-05-06T04:02:53.621Z,96.45
2019-05-06T04:05:57.658Z,95.76
2019-05-06T04:09:03.635Z,95.52
2019-05-06T04:12:07.850Z,94.36
2019-05-06T04:15:14.157Z,93.86
2019-05-06T04:18:18.413Z,94.47
2019-05-06T04:21:28.336Z,94.73
2019-05-06T04:24:54.244Z,94.52
2019-05-06T04:28:03.057Z,94.61
2019-05-06T04:31:07.099Z,94.38
2019-05-06T04:34:15.906Z,93.59
2019-05-06T04:37:17.780Z,94.64
2019-05-06T04:40:23.908Z,94.89
2019-05-06T04:43:27.362Z,94.57
2019-05-06T04:46:34.360Z,94.38
2019-05-06T04:49:39.664Z,94.67
2019-05-06T04:52:43.631Z,94.38
2019-05-06T04:55:47.677Z,94.08
2019-05-06T04:58:53.898Z,92.31
2019-05-06T05:01:57.295Z,92.37
2019-05-06T05:05:04.270Z,93.36
2019-05-06T05:08:06.824Z,93.27
2019-05-06T05:11:33.304Z,93.10
2019-05-06T05:14:42.459Z,93.32
2019-05-06T05:18:12.995Z,93.50
2019-05-06T05:21:17.145Z,93.13
2019-05-06T05:24:23.414Z,93.13
2019-05-06T05:27:26.837Z,92.99
2019-05-06T05:30:32.837Z,91.29
2019-05-06T05:33:36.842Z,92.21
2019-05-06T05:36:42.570Z,91.00
2019-05-06T05:39:46.622Z,91.50
2019-05-06T05:42:57.530Z,89.20
2019-05-06T05:46:02.951Z,89.74
2019-05-06T05:49:21.937Z,90.10
2019-05-06T05:52:25.396Z,89.89
2019-05-06T05:55:29.360Z,89.65
2019-05-06T05:58:33.534Z,88.12
2019-05-06T06:01:37.969Z,88.04
2019-05-06T06:04:54.202Z,87.73
2019-05-06T06:07:47.486Z,87.81
2019-05-06T06:11:04.116Z,87.97
2019-05-06T06:14:26.423Z,87.89
2019-05-06T06:17:42.584Z,88.23
2019-05-06T06:20:56.774Z,86.26
2019-05-06T06:24:05.157Z,86.91
2019-05-06T06:27:09.137Z,87.18
2019-05-06T06:30:13.094Z,86.80
2019-05-06T06:33:17.079Z,87.72
2019-05-06T06:36:43.230Z,86.87
2019-05-06T06:39:48.150Z,85.41
2019-05-06T06:42:55.821Z,84.83
2019-05-06T06:46:02.514Z,85.20
2019-05-06T06:49:17.934Z,83.13
2019-05-06T06:52:23.065Z,84.32
2019-05-06T06:55:27.297Z,82.32
2019-05-06T06:58:38.130Z,80.79
2019-05-06T07:01:49.312Z,80.42
2019-05-06T07:05:02.420Z,76.42
2019-05-06T07:08:06.432Z,75.02
2019-05-06T07:11:10.249Z,75.73
2019-05-06T07:14:14.155Z,73.37
2019-05-06T07:17:18.141Z,72.87
2019-05-06T07:20:23.706Z,73.07
2019-05-06T07:23:28.161Z,72.24
2019-05-06T07:26:38.424Z,72.20
2019-05-06T07:29:48.443Z,70.67
2019-05-06T07:32:48.147Z,69.81
2019-05-06T07:35:52.895Z,71.25
2019-05-06T07:38:57.194Z,72.28
2019-05-06T07:42:03.265Z,74.78
2019-05-06T07:45:21.885Z,75.13
2019-05-06T07:48:25.255Z,75.39
2019-05-06T07:51:29.080Z,75.19
2019-05-06T07:54:33.082Z,74.35
2019-05-06T07:57:36.916Z,73.02
2019-05-06T08:00:42.284Z,71.89
2019-05-06T08:03:46.430Z,71.70
2019-05-06T08:06:52.321Z,72.04
2019-05-06T08:09:56.007Z,67.74
2019-05-06T08:13:02.485Z,67.71
2019-05-06T08:16:05.631Z,66.63
2019-05-06T08:19:09.584Z,67.66
2019-05-06T08:22:17.135Z,67.22
2019-05-06T08:25:22.946Z,67.94
2019-05-06T08:28:37.395Z,67.54
2019-05-06T08:31:32.710Z,69.12
2019-05-06T08:34:36.728Z,70.76
2019-05-06T08:37:42.542Z,65.36
2019-05-06T08:40:46.317Z,67.15
2019-05-06T08:43:50.164Z,68.34
2019-05-06T08:46:54.061Z,67.83
2019-05-06T08:50:12.815Z,68.22
2019-05-06T08:53:25.540Z,69.39
2019-05-06T08:56:29.429Z,70.01
2019-05-06T08:59:33.232Z,71.52
2019-05-06T09:02:37.047Z,68.27
2019-05-06T09:05:42.585Z,68.30
2019-05-06T09:08:46.490Z,67.89
2019-05-06T09:11:50.318Z,65.50
2019-05-06T09:14:54.144Z,67.78
2019-05-06T09:17:57.959Z,63.61
2019-05-06T09:21:02.945Z,65.12
2019-05-06T09:24:07.042Z,62.05
2019-05-06T09:27:19.093Z,62.63
2019-05-06T09:30:36.375Z,63.41
2019-05-06T09:33:46.652Z,60.89
2019-05-06T09:37:09.478Z,61.44
2019-05-06T09:40:13.759Z,62.33
2019-05-06T09:43:17.571Z,67.21
2019-05-06T09:46:23.093Z,66.77
2019-05-06T09:49:27.283Z,69.55
2019-05-06T09:52:33.280Z,69.35
2019-05-06T09:55:45.334Z,69.21
2019-05-06T09:58:49.296Z,68.06
2019-05-06T10:01:53.201Z,65.02
2019-05-06T10:04:57.266Z,63.20
2019-05-06T10:08:03.285Z,62.11
2019-05-06T10:11:06.869Z,58.38
2019-05-06T10:14:12.840Z,59.08
2019-05-06T10:17:16.540Z,58.61
2019-05-06T10:20:22.308Z,57.16
2019-05-06T10:23:26.330Z,58.71
2019-05-06T10:26:33.790Z,57.79
2019-05-06T10:29:43.183Z,58.46
2019-05-06T10:32:56.535Z,59.36
2019-05-06T10:36:04.457Z,61.30
2019-05-06T10:39:12.650Z,57.99
2019-05-06T10:42:20.076Z,55.26
2019-05-06T10:45:32.468Z,55.17
2019-05-06T10:48:36.381Z,53.84
2019-05-06T10:51:55.068Z,54.68
2019-05-06T10:54:58.992Z,52.94
2019-05-06T10:58:02.932Z,56.95
2019-05-06T11:01:18.708Z,58.10
2019-05-06T11:04:22.630Z,59.03
2019-05-06T11:07:31.429Z,60.13
2019-05-06T11:10:40.043Z,56.94
2019-05-06T11:13:38.469Z,57.32
2019-05-06T11:16:42.376Z,57.26
2019-05-06T11:19:46.240Z,57.46
2019-05-06T11:22:52.699Z,57.98
2019-05-06T11:25:55.801Z,55.96
2019-05-06T11:29:05.039Z,57.18
2019-05-06T11:32:28.113Z,57.78
2019-05-06T11:35:52.822Z,59.87
2019-05-06T11:38:56.813Z,56.26
2019-05-06T11:42:22.872Z,56.89
2019-05-06T11:45:07.603Z,58.28
2019-05-06T11:48:14.732Z,59.09
2019-05-06T11:51:22.971Z,59.88
2019-05-06T11:54:25.993Z,61.37
2019-05-06T11:57:29.805Z,62.96
2019-05-06T12:00:37.490Z,61.77
2019-05-06T12:03:42.669Z,61.72
2019-05-06T12:06:46.595Z,59.89
2019-05-06T12:09:53.583Z,59.05
2019-05-06T12:12:56.108Z,60.13
2019-05-06T12:16:02.404Z,57.16
2019-05-06T12:19:05.749Z,55.40
2019-05-06T12:22:09.671Z,55.32
2019-05-06T12:25:15.414Z,55.31
2019-05-06T12:28:19.567Z,55.99
2019-05-06T12:31:23.574Z,54.19
2019-05-06T12:34:27.378Z,53.95
2019-05-06T12:37:31.261Z,52.97
2019-05-06T12:40:35.092Z,51.44
2019-05-06T12:43:46.592Z,51.77
2019-05-06T12:46:59.997Z,51.31
2019-05-06T12:50:05.142Z,52.69
2019-05-06T12:53:08.946Z,55.80
2019-05-06T12:56:12.831Z,57.76
2019-05-06T12:59:16.629Z,59.40
2019-05-06T13:02:20.552Z,58.96
2019-05-06T13:05:24.469Z,57.53
2019-05-06T13:08:47.981Z,56.49
2019-05-06T13:11:34.131Z,57.85
2019-05-06T13:14:38.044Z,57.57
2019-05-06T13:17:42.514Z,56.09
2019-05-06T13:20:50.865Z,54.87
2019-05-06T13:23:56.094Z,58.97
2019-05-06T13:27:02.289Z,61.27
2019-05-06T13:30:06.986Z,61.95
2019-05-06T13:33:17.299Z,58.03
2019-05-06T13:36:22.598Z,56.68
2019-05-06T13:39:26.722Z,57.21
2019-05-06T13:42:33.169Z,58.65
2019-05-06T13:45:37.848Z,58.68
2019-05-06T13:48:46.677Z,55.94
2019-05-06T13:51:56.477Z,55.55
2019-05-06T13:55:02.547Z,51.88
2019-05-06T13:58:05.927Z,51.68
2019-05-06T14:01:13.784Z,52.52
2019-05-06T14:04:17.700Z,51.35
2019-05-06T14:07:24.304Z,52.12
2019-05-06T14:10:27.454Z,51.79
2019-05-06T14:13:32.733Z,50.94
2019-05-06T14:16:36.825Z,49.02
2019-05-06T14:19:42.759Z,51.10
2019-05-06T14:22:46.313Z,48.60
2019-05-06T14:26:08.360Z,52.28
2019-05-06T14:29:36.117Z,51.45
2019-05-06T14:32:40.034Z,54.08
2019-05-06T14:35:43.856Z,56.18
2019-05-06T14:38:47.689Z,57.58
2019-05-06T14:41:53.802Z,57.16
2019-05-06T14:44:57.613Z,55.55
2019-05-06T14:48:01.431Z,56.93
2019-05-06T14:51:05.237Z,57.02
2019-05-06T14:54:09.231Z,57.95
2019-05-06T14:57:13.993Z,57.57
2019-05-06T15:00:19.857Z,60.71
2019-05-06T15:03:23.679Z,62.92
2019-05-06T15:06:27.700Z,66.53
2019-05-06T15:09:32.972Z,65.24
2019-05-06T15:12:36.922Z,61.56
2019-05-06T15:15:42.888Z,58.74
2019-05-06T15:18:46.335Z,56.29
2019-05-06T15:21:52.903Z,57.00
2019-05-06T15:24:55.838Z,55.11
2019-05-06T15:27:59.659Z,57.68
2019-05-06T15:31:12.332Z,57.32
2019-05-06T15:34:19.672Z,58.54
2019-05-06T15:37:33.907Z,59.03
2019-05-06T15:40:37.315Z,55.68
2019-05-06T15:43:41.124Z,50.77
2019-05-06T15:46:44.978Z,52.39
2019-05-06T15:49:48.807Z,50.91
2019-05-06T15:52:53.891Z,52.09
2019-05-06T15:55:58.124Z,53.46
2019-05-06T15:59:02.634Z,54.58
2019-05-06T16:02:06.768Z,57.06
2019-05-06T16:05:13.649Z,57.17
2019-05-06T16:08:16.349Z,57.96
2019-05-06T16:11:22.221Z,58.91
2019-05-06T16:14:25.777Z,59.45
2019-05-06T16:17:29.659Z,61.67
2019-05-06T16:20:33.628Z,66.37
2019-05-06T16:23:42.453Z,70.47
2019-05-06T16:26:46.299Z,68.54
2019-05-06T16:29:50.111Z,64.86
2019-05-06T16:32:54.079Z,64.98
2019-05-06T16:35:57.882Z,64.37
2019-05-06T16:39:03.577Z,64.21
2019-05-06T16:42:07.766Z,62.65
2019-05-06T16:45:12.652Z,61.19
2019-05-06T16:48:16.630Z,61.59
2019-05-06T16:51:22.297Z,63.06
2019-05-06T16:54:27.237Z,62.87
2019-05-06T16:57:33.250Z,62.99
2019-05-06T17:00:38.363Z,62.40
2019-05-06T17:03:57.064Z,60.14
2019-05-06T17:07:03.003Z,57.10
2019-05-06T17:10:07.000Z,58.29
2019-05-06T17:13:12.590Z,60.65
2019-05-06T17:16:17.295Z,61.70
2019-05-06T17:19:23.014Z,62.41
2019-05-06T17:22:26.657Z,63.23
2019-05-06T17:25:32.354Z,63.86
2019-05-06T17:29:04.414Z,64.24
2019-05-06T17:32:29.704Z,64.12
2019-05-06T17:35:33.523Z,62.73
2019-05-06T17:38:42.010Z,61.27
2019-05-06T17:41:48.900Z,60.88
2019-05-06T17:44:53.297Z,59.23
2019-05-06T17:48:02.909Z,59.30
2019-05-06T17:51:17.822Z,58.99
2019-05-06T17:54:22.482Z,60.33
2019-05-06T17:57:27.274Z,60.69
2019-05-06T18:00:32.368Z,61.00
2019-05-06T18:03:36.365Z,61.60
2019-05-06T18:06:42.371Z,60.28
2019-05-06T18:09:45.701Z,59.47
2019-05-06T18:12:49.525Z,59.97
2019-05-06T18:15:53.323Z,60.10
2019-05-06T18:18:57.217Z,61.22
2019-05-06T18:22:02.543Z,60.63
2019-05-06T18:25:06.789Z,61.98
2019-05-06T18:28:12.270Z,62.32
2019-05-06T18:31:16.282Z,63.22
2019-05-06T18:34:20.093Z,64.09
2019-05-06T18:37:23.906Z,65.34
2019-05-06T18:40:27.772Z,65.66
2019-05-06T18:43:33.225Z,66.86
2019-05-06T18:46:37.279Z,67.33
2019-05-06T18:49:42.624Z,68.16
2019-05-06T18:52:46.653Z,68.54
2019-05-06T18:55:50.469Z,69.43
2019-05-06T18:58:54.352Z,69.01
2019-05-06T19:01:58.316Z,69.50
2019-05-06T19:05:14.429Z,70.53
2019-05-06T19:08:43.509Z,70.64
2019-05-06T19:11:47.512Z,70.46
2019-05-06T19:14:52.574Z,70.43
2019-05-06T19:17:56.488Z,69.60
2019-05-06T19:21:02.588Z,69.38
2019-05-06T19:24:05.906Z,69.63
2019-05-06T19:27:09.701Z,69.17
2019-05-06T19:30:14.064Z,68.45
2019-05-06T19:33:17.881Z,69.05
2019-05-06T19:36:23.508Z,70.10
2019-05-06T19:39:27.247Z,70.58
2019-05-06T19:42:43.686Z,70.96
2019-05-06T19:45:36.573Z,71.40
2019-05-06T19:48:40.387Z,70.78
2019-05-06T19:51:44.228Z,70.47
2019-05-06T19:54:48.031Z,70.04
2019-05-06T19:57:52.605Z,70.39
2019-05-06T20:00:56.595Z,70.85
2019-05-06T20:04:02.333Z,71.01
2019-05-06T20:07:15.644Z,71.19
2019-05-06T20:10:41.944Z,71.34
2019-05-06T20:13:45.277Z,71.34
2019-05-06T20:16:49.177Z,71.74
2019-05-06T20:19:53.016Z,71.51
2019-05-06T20:22:56.934Z,70.92
2019-05-06T20:26:02.686Z,71.76
2019-05-06T20:29:06.311Z,72.97
2019-05-06T20:32:12.200Z,72.25
2019-05-06T20:35:16.011Z,72.84
2019-05-06T20:38:19.809Z,73.46
2019-05-06T20:41:23.623Z,74.14
2019-05-06T20:44:27.431Z,75.02
2019-05-06T20:47:32.021Z,75.60
2019-05-06T20:50:35.941Z,76.35
2019-05-06T20:53:39.761Z,76.48
2019-05-06T20:56:43.559Z,76.32
2019-05-06T20:59:47.381Z,76.61
2019-05-06T21:02:53.252Z,77.49
2019-05-06T21:05:56.888Z,78.12
2019-05-06T21:09:02.255Z,78.34
2019-05-06T21:12:06.497Z,79.08
2019-05-06T21:15:13.372Z,78.81
2019-05-06T21:18:17.100Z,78.00
2019-05-06T21:21:21.028Z,76.59
2019-05-06T21:24:24.809Z,76.98
2019-05-06T21:27:28.643Z,78.01
2019-05-06T21:30:32.605Z,78.67
2019-05-06T21:33:36.504Z,77.86
2019-05-06T21:36:42.293Z,78.75
2019-05-06T21:39:45.842Z,79.60
2019-05-06T21:42:49.623Z,79.90
2019-05-06T21:45:54.145Z,79.99
2019-05-06T21:48:58.121Z,80.04
2019-05-06T21:52:02.330Z,79.91
2019-05-06T21:55:06.436Z,79.83
2019-05-06T21:58:12.243Z,80.22
2019-05-06T22:01:15.869Z,80.52
2019-05-06T22:04:19.718Z,81.23
2019-05-06T22:07:23.631Z,80.57
2019-05-06T22:10:27.445Z,80.95
2019-05-06T22:13:33.328Z,80.54
2019-05-06T22:16:36.854Z,80.95
2019-05-06T22:19:42.756Z,81.89
2019-05-06T22:22:46.373Z,81.98
2019-05-06T22:25:50.196Z,81.96
2019-05-06T22:28:54.915Z,82.91
2019-05-06T22:31:58.724Z,82.68
2019-05-06T22:35:04.749Z,83.38
2019-05-06T22:38:08.089Z,82.83
2019-05-06T22:41:11.968Z,83.45
2019-05-06T22:44:17.142Z,83.51
2019-05-06T22:47:23.030Z,84.05
2019-05-06T22:50:26.697Z,84.36
2019-05-06T22:53:32.766Z,84.60
2019-05-06T22:56:36.189Z,84.81
2019-05-06T22:59:40.058Z,84.84
2019-05-06T23:02:50.269Z,84.32
2019-05-06T23:05:54.081Z,84.48
2019-05-06T23:08:58.098Z,85.14
2019-05-06T23:12:02.478Z,85.22
2019-05-06T23:15:08.535Z,85.32
2019-05-06T23:18:13.092Z,85.75
2019-05-06T23:21:16.902Z,85.60
2019-05-06T23:24:22.539Z,85.25
2019-05-06T23:27:26.394Z,85.28
2019-05-06T23:30:30.414Z,86.35
2019-05-06T23:33:34.223Z,86.52
2019-05-06T23:37:28.269Z,86.36
2019-05-06T23:41:08.109Z,86.69
2019-05-06T23:44:47.852Z,86.80
2019-05-06T23:48:27.709Z,86.29
2019-05-06T23:52:07.710Z,86.25
2019-05-06T23:55:47.856Z,86.20
2019-05-06T23:58:52.354Z,85.88
